sensor_id;sensor_type;location;lat;lon;timestamp;pressure;altitude;pressure_sealevel;temperature;humidity
21011;BME280;10663;42.714;23.274;2022-08-21T00:00:13;94283.59;;;17.96;100.00
21011;BME280;10663;42.714;23.274;2022-08-21T00:01:44;94272.59;;;17.89;100.00
21011;BME280;10663;42.714;23.274;2022-08-21T00:03:15;94261.44;;;17.78;100.00
21011;BME280;10663;42.714;23.274;2022-08-21T00:04:47;94254.69;;;17.72;100.00
21011;BME280;10663;42.714;23.274;2022-08-21T00:06:18;94254.69;;;17.72;100.00
21011;BME280;10663;42.714;23.274;2022-08-21T00:07:50;94263.22;;;17.74;100.00
21011;BME280;10663;42.714;23.274;2022-08-21T00:09:21;94265.53;;;17.76;100.00
21011;BME280;10663;42.714;23.274;2022-08-21T00:10:52;94264.63;;;17.72;100.00
21011;BME280;10663;42.714;23.274;2022-08-21T00:12:23;94265.41;;;17.72;100.00
21011;BME280;10663;42.714;23.274;2022-08-21T00:13:55;94263.06;;;17.71;100.00
21011;BME280;10663;42.714;23.274;2022-08-21T00:15:28;94263.34;;;17.78;100.00
21011;BME280;10663;42.714;23.274;2022-08-21T00:17:00;94255.97;;;17.75;100.00
21011;BME280;10663;42.714;23.274;2022-08-21T00:18:31;94265.72;;;17.71;100.00
21011;BME280;10663;42.714;23.274;2022-08-21T00:20:04;94263.22;;;17.74;100.00
21011;BME280;10663;42.714;23.274;2022-08-21T00:21:36;94260.06;;;17.72;100.00
21011;BME280;10663;42.714;23.274;2022-08-21T00:23:07;94251.72;;;17.74;100.00
21011;BME280;10663;42.714;23.274;2022-08-21T00:24:38;94256.63;;;17.63;100.00
21011;BME280;10663;42.714;23.274;2022-08-21T00:26:09;94246.72;;;17.46;100.00
21011;BME280;10663;42.714;23.274;2022-08-21T00:27:40;94243.56;;;17.36;100.00
21011;BME280;10663;42.714;23.274;2022-08-21T00:29:13;94238.53;;;17.43;100.00
21011;BME280;10663;42.714;23.274;2022-08-21T00:30:45;94236.31;;;17.45;100.00
21011;BME280;10663;42.714;23.274;2022-08-21T00:32:21;94236.63;;;17.43;100.00
21011;BME280;10663;42.714;23.274;2022-08-21T00:33:52;94239.47;;;17.47;100.00
21011;BME280;10663;42.714;23.274;2022-08-21T00:35:29;94237.28;;;17.32;100.00
21011;BME280;10663;42.714;23.274;2022-08-21T00:37:00;94242.94;;;17.39;100.00
21011;BME280;10663;42.714;23.274;2022-08-21T00:38:31;94242.31;;;17.33;100.00
21011;BME280;10663;42.714;23.274;2022-08-21T00:40:02;94244.97;;;17.42;100.00
21011;BME280;10663;42.714;23.274;2022-08-21T00:41:36;94246.41;;;17.48;100.00
21011;BME280;10663;42.714;23.274;2022-08-21T00:43:10;94240.28;;;17.39;100.00
21011;BME280;10663;42.714;23.274;2022-08-21T00:44:46;94238.34;;;17.39;100.00
21011;BME280;10663;42.714;23.274;2022-08-21T00:46:18;94245.44;;;17.44;100.00
21011;BME280;10663;42.714;23.274;2022-08-21T00:47:50;94249.38;;;17.46;100.00
21011;BME280;10663;42.714;23.274;2022-08-21T00:49:21;94249.22;;;17.51;100.00
21011;BME280;10663;42.714;23.274;2022-08-21T00:50:57;94244.31;;;17.53;100.00
21011;BME280;10663;42.714;23.274;2022-08-21T00:52:30;94241.34;;;17.64;100.00
21011;BME280;10663;42.714;23.274;2022-08-21T00:54:03;94247.16;;;17.66;100.00
21011;BME280;10663;42.714;23.274;2022-08-21T00:55:34;94241.16;;;17.69;100.00
21011;BME280;10663;42.714;23.274;2022-08-21T00:57:14;94243.03;;;17.68;100.00
21011;BME280;10663;42.714;23.274;2022-08-21T00:58:47;94239.75;;;17.71;100.00
21011;BME280;10663;42.714;23.274;2022-08-21T01:00:23;94249.50;;;17.67;100.00
21011;BME280;10663;42.714;23.274;2022-08-21T01:01:54;94249.50;;;17.67;100.00
21011;BME280;10663;42.714;23.274;2022-08-21T01:03:25;94237.09;;;17.63;100.00
21011;BME280;10663;42.714;23.274;2022-08-21T01:04:56;94238.34;;;17.56;100.00
21011;BME280;10663;42.714;23.274;2022-08-21T01:06:27;94239.25;;;17.61;100.00
21011;BME280;10663;42.714;23.274;2022-08-21T01:07:58;94233.31;;;17.64;100.00
21011;BME280;10663;42.714;23.274;2022-08-21T01:09:29;94227.94;;;17.72;100.00
21011;BME280;10663;42.714;23.274;2022-08-21T01:11:01;94233.13;;;17.69;100.00
21011;BME280;10663;42.714;23.274;2022-08-21T01:12:33;94233.59;;;17.71;100.00
21011;BME280;10663;42.714;23.274;2022-08-21T01:14:04;94228.88;;;17.68;100.00
21011;BME280;10663;42.714;23.274;2022-08-21T01:15:40;94233.44;;;17.67;100.00
21011;BME280;10663;42.714;23.274;2022-08-21T01:17:13;94224.47;;;17.63;100.00
21011;BME280;10663;42.714;23.274;2022-08-21T01:18:46;94220.03;;;17.58;100.00
21011;BME280;10663;42.714;23.274;2022-08-21T01:20:18;94216.25;;;17.59;100.00
21011;BME280;10663;42.714;23.274;2022-08-21T01:21:48;94217.41;;;17.50;100.00
21011;BME280;10663;42.714;23.274;2022-08-21T01:23:19;94211.13;;;17.46;100.00
21011;BME280;10663;42.714;23.274;2022-08-21T01:24:50;94209.53;;;17.45;100.00
21011;BME280;10663;42.714;23.274;2022-08-21T01:26:25;94209.22;;;17.46;100.00
21011;BME280;10663;42.714;23.274;2022-08-21T01:27:59;94216.94;;;17.48;100.00
21011;BME280;10663;42.714;23.274;2022-08-21T01:29:42;94212.34;;;17.48;100.00
21011;BME280;10663;42.714;23.274;2022-08-21T01:31:17;94217.28;;;17.38;100.00
21011;BME280;10663;42.714;23.274;2022-08-21T01:32:50;94217.56;;;17.45;100.00
21011;BME280;10663;42.714;23.274;2022-08-21T01:34:22;94225.44;;;17.50;100.00
21011;BME280;10663;42.714;23.274;2022-08-21T01:35:53;94218.50;;;17.49;100.00
21011;BME280;10663;42.714;23.274;2022-08-21T01:37:23;94220.91;;;17.33;100.00
21011;BME280;10663;42.714;23.274;2022-08-21T01:38:55;94225.19;;;17.26;100.00
21011;BME280;10663;42.714;23.274;2022-08-21T01:40:26;94220.44;;;17.23;100.00
21011;BME280;10663;42.714;23.274;2022-08-21T01:41:57;94232.25;;;17.21;100.00
21011;BME280;10663;42.714;23.274;2022-08-21T01:43:28;94228.78;;;17.21;100.00
21011;BME280;10663;42.714;23.274;2022-08-21T01:44:59;94225.03;;;17.13;100.00
21011;BME280;10663;42.714;23.274;2022-08-21T01:46:30;94228.19;;;17.15;100.00
21011;BME280;10663;42.714;23.274;2022-08-21T01:48:01;94227.25;;;17.20;100.00
21011;BME280;10663;42.714;23.274;2022-08-21T01:49:34;94223.63;;;17.07;100.00
21011;BME280;10663;42.714;23.274;2022-08-21T01:51:07;94223.78;;;17.11;100.00
21011;BME280;10663;42.714;23.274;2022-08-21T01:52:38;94229.59;;;17.04;100.00
21011;BME280;10663;42.714;23.274;2022-08-21T01:54:09;94234.63;;;17.06;100.00
21011;BME280;10663;42.714;23.274;2022-08-21T01:55:42;94231.81;;;17.02;100.00
21011;BME280;10663;42.714;23.274;2022-08-21T01:57:13;94237.78;;;17.08;100.00
21011;BME280;10663;42.714;23.274;2022-08-21T01:58:46;94224.09;;;17.09;100.00
21011;BME280;10663;42.714;23.274;2022-08-21T02:00:20;94226.31;;;17.07;100.00
21011;BME280;10663;42.714;23.274;2022-08-21T02:01:53;94228.19;;;17.07;100.00
21011;BME280;10663;42.714;23.274;2022-08-21T02:03:28;94226.31;;;16.99;100.00
21011;BME280;10663;42.714;23.274;2022-08-21T02:04:59;94228.81;;;16.95;100.00
21011;BME280;10663;42.714;23.274;2022-08-21T02:06:29;94232.75;;;16.98;100.00
21011;BME280;10663;42.714;23.274;2022-08-21T02:08:00;94229.59;;;17.04;100.00
21011;BME280;10663;42.714;23.274;2022-08-21T02:09:31;94235.44;;;17.06;100.00
21011;BME280;10663;42.714;23.274;2022-08-21T02:11:02;94237.94;;;17.03;100.00
21011;BME280;10663;42.714;23.274;2022-08-21T02:12:33;94235.91;;;17.08;100.00
21011;BME280;10663;42.714;23.274;2022-08-21T02:14:06;94234.00;;;17.09;100.00
21011;BME280;10663;42.714;23.274;2022-08-21T02:15:37;94234.00;;;17.17;100.00
21011;BME280;10663;42.714;23.274;2022-08-21T02:17:07;94240.94;;;17.18;100.00
21011;BME280;10663;42.714;23.274;2022-08-21T02:18:39;94236.38;;;17.19;100.00
21011;BME280;10663;42.714;23.274;2022-08-21T02:20:14;94234.16;;;17.30;100.00
21011;BME280;10663;42.714;23.274;2022-08-21T02:21:45;94224.97;;;17.39;100.00
21011;BME280;10663;42.714;23.274;2022-08-21T02:23:16;94231.28;;;17.43;100.00
21011;BME280;10663;42.714;23.274;2022-08-21T02:24:47;94238.97;;;17.53;100.00
21011;BME280;10663;42.714;23.274;2022-08-21T02:26:18;94231.91;;;17.95;100.00
21011;BME280;10663;42.714;23.274;2022-08-21T02:27:49;94233.09;;;18.15;100.00
21011;BME280;10663;42.714;23.274;2022-08-21T02:29:20;94227.84;;;18.27;100.00
21011;BME280;10663;42.714;23.274;2022-08-21T02:30:51;94227.00;;;18.36;100.00
21011;BME280;10663;42.714;23.274;2022-08-21T02:32:23;94229.84;;;18.30;100.00
21011;BME280;10663;42.714;23.274;2022-08-21T02:33:54;94232.63;;;18.13;100.00
21011;BME280;10663;42.714;23.274;2022-08-21T02:35:26;94236.34;;;18.21;100.00
21011;BME280;10663;42.714;23.274;2022-08-21T02:36:57;94237.44;;;18.58;100.00
21011;BME280;10663;42.714;23.274;2022-08-21T02:38:31;94233.88;;;18.75;100.00
21011;BME280;10663;42.714;23.274;2022-08-21T02:40:08;94234.44;;;18.80;100.00
21011;BME280;10663;42.714;23.274;2022-08-21T02:41:41;94236.22;;;18.97;100.00
21011;BME280;10663;42.714;23.274;2022-08-21T02:43:12;94231.63;;;18.77;100.00
21011;BME280;10663;42.714;23.274;2022-08-21T02:44:43;94243.66;;;18.71;100.00
21011;BME280;10663;42.714;23.274;2022-08-21T02:46:17;94235.88;;;18.78;100.00
21011;BME280;10663;42.714;23.274;2022-08-21T02:47:53;94241.06;;;18.62;100.00
21011;BME280;10663;42.714;23.274;2022-08-21T02:49:25;94247.75;;;18.47;100.00
21011;BME280;10663;42.714;23.274;2022-08-21T02:51:02;94247.75;;;18.47;100.00
21011;BME280;10663;42.714;23.274;2022-08-21T02:52:33;94243.19;;;18.39;100.00
21011;BME280;10663;42.714;23.274;2022-08-21T02:54:05;94245.25;;;18.72;100.00
21011;BME280;10663;42.714;23.274;2022-08-21T02:55:37;94234.38;;;18.68;100.00
21011;BME280;10663;42.714;23.274;2022-08-21T02:57:08;94225.03;;;18.74;100.00
21011;BME280;10663;42.714;23.274;2022-08-21T02:58:43;94237.47;;;18.79;100.00
21011;BME280;10663;42.714;23.274;2022-08-21T03:00:15;94231.38;;;18.69;100.00
21011;BME280;10663;42.714;23.274;2022-08-21T03:01:46;94234.78;;;18.99;100.00
21011;BME280;10663;42.714;23.274;2022-08-21T03:03:17;94227.66;;;18.53;100.00
21011;BME280;10663;42.714;23.274;2022-08-21T03:04:48;94239.78;;;18.30;100.00
21011;BME280;10663;42.714;23.274;2022-08-21T03:06:20;94244.13;;;18.43;100.00
21011;BME280;10663;42.714;23.274;2022-08-21T03:07:52;94244.28;;;18.47;100.00
21011;BME280;10663;42.714;23.274;2022-08-21T03:09:23;94243.34;;;18.43;100.00
21011;BME280;10663;42.714;23.274;2022-08-21T03:10:54;94244.84;;;18.61;100.00
21011;BME280;10663;42.714;23.274;2022-08-21T03:12:25;94242.38;;;18.47;100.00
21011;BME280;10663;42.714;23.274;2022-08-21T03:13:56;94245.56;;;18.70;100.00
21011;BME280;10663;42.714;23.274;2022-08-21T03:15:27;94237.28;;;18.84;100.00
21011;BME280;10663;42.714;23.274;2022-08-21T03:16:58;94242.38;;;18.97;100.00
21011;BME280;10663;42.714;23.274;2022-08-21T03:18:28;94240.78;;;18.96;100.00
21011;BME280;10663;42.714;23.274;2022-08-21T03:19:59;94246.16;;;18.17;100.00
21011;BME280;10663;42.714;23.274;2022-08-21T03:21:31;94242.97;;;18.23;100.00
21011;BME280;10663;42.714;23.274;2022-08-21T03:23:03;94245.56;;;18.70;100.00
21011;BME280;10663;42.714;23.274;2022-08-21T03:24:34;94244.22;;;18.55;100.00
21011;BME280;10663;42.714;23.274;2022-08-21T03:26:06;94244.81;;;18.31;100.00
21011;BME280;10663;42.714;23.274;2022-08-21T03:27:38;94239.50;;;18.23;100.00
21011;BME280;10663;42.714;23.274;2022-08-21T03:29:09;94245.53;;;18.20;100.00
21011;BME280;10663;42.714;23.274;2022-08-21T03:30:41;94245.31;;;18.63;100.00
21011;BME280;10663;42.714;23.274;2022-08-21T03:32:12;94238.25;;;18.79;100.00
21011;BME280;10663;42.714;23.274;2022-08-21T03:33:43;94241.53;;;18.55;100.00
21011;BME280;10663;42.714;23.274;2022-08-21T03:35:14;94240.09;;;18.37;100.00
21011;BME280;10663;42.714;23.274;2022-08-21T03:36:45;94231.88;;;18.04;100.00
21011;BME280;10663;42.714;23.274;2022-08-21T03:38:16;94237.34;;;18.16;100.00
21011;BME280;10663;42.714;23.274;2022-08-21T03:39:47;94234.66;;;18.16;100.00
21011;BME280;10663;42.714;23.274;2022-08-21T03:41:18;94231.59;;;17.97;100.00
21011;BME280;10663;42.714;23.274;2022-08-21T03:42:49;94238.84;;;17.97;100.00
21011;BME280;10663;42.714;23.274;2022-08-21T03:44:19;94238.56;;;17.89;100.00
21011;BME280;10663;42.714;23.274;2022-08-21T03:45:51;94229.38;;;17.99;100.00
21011;BME280;10663;42.714;23.274;2022-08-21T03:47:22;94235.97;;;18.10;100.00
21011;BME280;10663;42.714;23.274;2022-08-21T03:48:52;94242.19;;;17.93;100.00
21011;BME280;10663;42.714;23.274;2022-08-21T03:50:30;94239.75;;;17.71;100.00
21011;BME280;10663;42.714;23.274;2022-08-21T03:52:02;94246.59;;;17.89;100.00
21011;BME280;10663;42.714;23.274;2022-08-21T03:53:33;94239.03;;;18.50;100.00
21011;BME280;10663;42.714;23.274;2022-08-21T03:55:04;94249.28;;;18.48;100.00
21011;BME280;10663;42.714;23.274;2022-08-21T03:56:35;94246.06;;;18.05;100.00
21011;BME280;10663;42.714;23.274;2022-08-21T03:58:06;94249.75;;;18.29;100.00
21011;BME280;10663;42.714;23.274;2022-08-21T03:59:38;94253.38;;;18.54;100.00
21011;BME280;10663;42.714;23.274;2022-08-21T04:01:09;94244.97;;;18.85;100.00
21011;BME280;10663;42.714;23.274;2022-08-21T04:02:40;94254.91;;;18.85;100.00
21011;BME280;10663;42.714;23.274;2022-08-21T04:04:12;94252.66;;;18.75;100.00
21011;BME280;10663;42.714;23.274;2022-08-21T04:05:43;94252.91;;;18.23;100.00
21011;BME280;10663;42.714;23.274;2022-08-21T04:07:16;94257.16;;;18.24;100.00
21011;BME280;10663;42.714;23.274;2022-08-21T04:08:47;94261.22;;;18.01;100.00
21011;BME280;10663;42.714;23.274;2022-08-21T04:10:19;94254.25;;;18.08;100.00
21011;BME280;10663;42.714;23.274;2022-08-21T04:11:50;94252.75;;;18.28;100.00
21011;BME280;10663;42.714;23.274;2022-08-21T04:13:21;94258.44;;;18.26;100.00
21011;BME280;10663;42.714;23.274;2022-08-21T04:14:51;94257.78;;;18.59;100.00
21011;BME280;10663;42.714;23.274;2022-08-21T04:16:22;94257.34;;;18.78;100.00
21011;BME280;10663;42.714;23.274;2022-08-21T04:17:53;94261.22;;;18.89;100.00
21011;BME280;10663;42.714;23.274;2022-08-21T04:19:25;94254.66;;;18.98;100.00
21011;BME280;10663;42.714;23.274;2022-08-21T04:20:57;94256.09;;;18.96;100.00
21011;BME280;10663;42.714;23.274;2022-08-21T04:22:29;94243.72;;;19.03;100.00
21011;BME280;10663;42.714;23.274;2022-08-21T04:24:00;94248.84;;;18.96;100.00
21011;BME280;10663;42.714;23.274;2022-08-21T04:25:31;94254.19;;;19.17;100.00
21011;BME280;10663;42.714;23.274;2022-08-21T04:27:02;94251.91;;;19.07;100.00
21011;BME280;10663;42.714;23.274;2022-08-21T04:28:33;94251.59;;;19.09;100.00
21011;BME280;10663;42.714;23.274;2022-08-21T04:30:04;94252.16;;;19.14;100.00
21011;BME280;10663;42.714;23.274;2022-08-21T04:31:35;94246.06;;;19.26;100.00
21011;BME280;10663;42.714;23.274;2022-08-21T04:33:09;94247.00;;;19.30;100.00
21011;BME280;10663;42.714;23.274;2022-08-21T04:34:40;94247.00;;;18.88;100.00
21011;BME280;10663;42.714;23.274;2022-08-21T04:36:11;94256.66;;;18.30;100.00
21011;BME280;10663;42.714;23.274;2022-08-21T04:37:42;94259.06;;;18.23;100.00
21011;BME280;10663;42.714;23.274;2022-08-21T04:39:13;94254.47;;;18.53;100.00
21011;BME280;10663;42.714;23.274;2022-08-21T04:40:43;94257.16;;;18.83;100.00
21011;BME280;10663;42.714;23.274;2022-08-21T04:42:14;94257.81;;;18.80;100.00
21011;BME280;10663;42.714;23.274;2022-08-21T04:43:45;94255.63;;;19.15;100.00
21011;BME280;10663;42.714;23.274;2022-08-21T04:45:28;94250.56;;;19.34;100.00
21011;BME280;10663;42.714;23.274;2022-08-21T04:46:59;94252.16;;;19.35;100.00
21011;BME280;10663;42.714;23.274;2022-08-21T04:48:30;94253.91;;;19.31;100.00
21011;BME280;10663;42.714;23.274;2022-08-21T04:50:01;94246.50;;;19.49;100.00
21011;BME280;10663;42.714;23.274;2022-08-21T04:51:35;94247.25;;;19.37;100.00
21011;BME280;10663;42.714;23.274;2022-08-21T04:53:12;94243.34;;;19.47;100.00
21011;BME280;10663;42.714;23.274;2022-08-21T04:54:45;94253.25;;;19.55;100.00
21011;BME280;10663;42.714;23.274;2022-08-21T04:56:22;94250.72;;;19.37;100.00
21011;BME280;10663;42.714;23.274;2022-08-21T04:57:53;94254.22;;;19.50;100.00
21011;BME280;10663;42.714;23.274;2022-08-21T04:59:29;94245.31;;;19.58;100.00
21011;BME280;10663;42.714;23.274;2022-08-21T05:01:03;94248.53;;;18.98;100.00
21011;BME280;10663;42.714;23.274;2022-08-21T05:02:35;94243.53;;;19.09;100.00
21011;BME280;10663;42.714;23.274;2022-08-21T05:04:08;94241.94;;;19.28;100.00
21011;BME280;10663;42.714;23.274;2022-08-21T05:05:40;94250.81;;;19.41;100.00
21011;BME280;10663;42.714;23.274;2022-08-21T05:07:15;94251.34;;;19.01;100.00
21011;BME280;10663;42.714;23.274;2022-08-21T05:08:49;94251.84;;;18.95;100.00
21011;BME280;10663;42.714;23.274;2022-08-21T05:10:22;94254.28;;;19.09;100.00
21011;BME280;10663;42.714;23.274;2022-08-21T05:11:54;94254.19;;;19.17;100.00
21011;BME280;10663;42.714;23.274;2022-08-21T05:13:25;94257.34;;;18.98;100.00
21011;BME280;10663;42.714;23.274;2022-08-21T05:14:56;94259.94;;;19.49;100.00
21011;BME280;10663;42.714;23.274;2022-08-21T05:16:27;94258.91;;;19.86;100.00
21011;BME280;10663;42.714;23.274;2022-08-21T05:17:58;94261.03;;;19.80;100.00
21011;BME280;10663;42.714;23.274;2022-08-21T05:19:29;94262.09;;;20.00;100.00
21011;BME280;10663;42.714;23.274;2022-08-21T05:20:59;94257.19;;;19.57;100.00
21011;BME280;10663;42.714;23.274;2022-08-21T05:22:30;94256.88;;;19.17;100.00
21011;BME280;10663;42.714;23.274;2022-08-21T05:24:01;94262.25;;;19.38;100.00
21011;BME280;10663;42.714;23.274;2022-08-21T05:25:32;94254.63;;;19.40;100.00
21011;BME280;10663;42.714;23.274;2022-08-21T05:27:03;94255.88;;;19.22;100.00
21011;BME280;10663;42.714;23.274;2022-08-21T05:28:34;94257.81;;;18.80;100.00
21011;BME280;10663;42.714;23.274;2022-08-21T05:30:07;94252.38;;;19.09;100.00
21011;BME280;10663;42.714;23.274;2022-08-21T05:31:38;94252.78;;;19.32;100.00
21011;BME280;10663;42.714;23.274;2022-08-21T05:33:08;94251.25;;;19.64;100.00
21011;BME280;10663;42.714;23.274;2022-08-21T05:34:40;94248.38;;;19.81;100.00
21011;BME280;10663;42.714;23.274;2022-08-21T05:36:11;94249.44;;;20.01;99.23
21011;BME280;10663;42.714;23.274;2022-08-21T05:37:42;94242.47;;;20.00;98.76
21011;BME280;10663;42.714;23.274;2022-08-21T05:39:13;94244.81;;;20.13;98.22
21011;BME280;10663;42.714;23.274;2022-08-21T05:40:45;94239.09;;;19.66;97.28
21011;BME280;10663;42.714;23.274;2022-08-21T05:42:16;94245.16;;;19.75;99.08
21011;BME280;10663;42.714;23.274;2022-08-21T05:43:47;94240.25;;;19.24;99.78
21011;BME280;10663;42.714;23.274;2022-08-21T05:45:18;94243.91;;;19.85;99.28
21011;BME280;10663;42.714;23.274;2022-08-21T05:46:49;94236.22;;;20.20;97.29
21011;BME280;10663;42.714;23.274;2022-08-21T05:48:22;94239.84;;;20.36;97.08
21011;BME280;10663;42.714;23.274;2022-08-21T05:49:53;94239.63;;;19.72;97.05
21011;BME280;10663;42.714;23.274;2022-08-21T05:51:24;94233.78;;;19.58;99.58
21011;BME280;10663;42.714;23.274;2022-08-21T05:52:55;94242.97;;;19.36;100.00
21011;BME280;10663;42.714;23.274;2022-08-21T05:54:26;94244.41;;;19.54;100.00
21011;BME280;10663;42.714;23.274;2022-08-21T05:55:56;94241.41;;;19.56;99.34
21011;BME280;10663;42.714;23.274;2022-08-21T05:57:27;94241.47;;;18.93;100.00
21011;BME280;10663;42.714;23.274;2022-08-21T05:58:58;94243.38;;;19.26;100.00
21011;BME280;10663;42.714;23.274;2022-08-21T06:00:29;94245.03;;;18.97;100.00
21011;BME280;10663;42.714;23.274;2022-08-21T06:02:01;94245.13;;;18.89;100.00
21011;BME280;10663;42.714;23.274;2022-08-21T06:03:35;94240.59;;;19.01;100.00
21011;BME280;10663;42.714;23.274;2022-08-21T06:05:07;94243.72;;;19.03;100.00
21011;BME280;10663;42.714;23.274;2022-08-21T06:06:41;94248.50;;;19.19;100.00
21011;BME280;10663;42.714;23.274;2022-08-21T06:08:11;94241.88;;;19.37;100.00
21011;BME280;10663;42.714;23.274;2022-08-21T06:09:42;94238.75;;;19.14;100.00
21011;BME280;10663;42.714;23.274;2022-08-21T06:11:13;94239.03;;;18.80;100.00
21011;BME280;10663;42.714;23.274;2022-08-21T06:12:44;94242.38;;;18.97;100.00
21011;BME280;10663;42.714;23.274;2022-08-21T06:14:15;94246.56;;;19.07;100.00
21011;BME280;10663;42.714;23.274;2022-08-21T06:15:47;94243.06;;;19.27;100.00
21011;BME280;10663;42.714;23.274;2022-08-21T06:17:18;94241.47;;;18.93;100.00
21011;BME280;10663;42.714;23.274;2022-08-21T06:18:49;94240.69;;;18.93;100.00
21011;BME280;10663;42.714;23.274;2022-08-21T06:20:20;94238.25;;;19.00;100.00
21011;BME280;10663;42.714;23.274;2022-08-21T06:21:51;94235.94;;;19.43;100.00
21011;BME280;10663;42.714;23.274;2022-08-21T06:23:22;94249.84;;;19.78;99.21
21011;BME280;10663;42.714;23.274;2022-08-21T06:24:53;94237.03;;;19.63;99.99
21011;BME280;10663;42.714;23.274;2022-08-21T06:26:24;94243.13;;;19.97;98.14
21011;BME280;10663;42.714;23.274;2022-08-21T06:28:04;94244.38;;;19.99;100.00
21011;BME280;10663;42.714;23.274;2022-08-21T06:29:36;94246.19;;;20.07;98.68
21011;BME280;10663;42.714;23.274;2022-08-21T06:31:18;94245.19;;;19.55;100.00
21011;BME280;10663;42.714;23.274;2022-08-21T06:32:49;94242.75;;;19.29;100.00
21011;BME280;10663;42.714;23.274;2022-08-21T06:34:20;94243.06;;;19.48;100.00
21011;BME280;10663;42.714;23.274;2022-08-21T06:35:51;94252.06;;;19.76;98.85
21011;BME280;10663;42.714;23.274;2022-08-21T06:37:22;94242.59;;;19.91;98.67
21011;BME280;10663;42.714;23.274;2022-08-21T06:38:53;94248.06;;;19.95;97.22
21011;BME280;10663;42.714;23.274;2022-08-21T06:40:25;94242.72;;;20.07;98.13
21011;BME280;10663;42.714;23.274;2022-08-21T06:41:57;94244.75;;;19.53;99.98
21011;BME280;10663;42.714;23.274;2022-08-21T06:43:32;94252.00;;;19.97;96.60
21011;BME280;10663;42.714;23.274;2022-08-21T06:45:04;94248.94;;;19.74;96.98
21011;BME280;10663;42.714;23.274;2022-08-21T06:46:36;94245.34;;;19.70;98.30
21011;BME280;10663;42.714;23.274;2022-08-21T06:48:07;94251.16;;;19.72;97.41
21011;BME280;10663;42.714;23.274;2022-08-21T06:49:37;94247.28;;;19.82;99.15
21011;BME280;10663;42.714;23.274;2022-08-21T06:51:08;94249.72;;;19.87;97.61
21011;BME280;10663;42.714;23.274;2022-08-21T06:52:39;94247.41;;;19.98;96.42
21011;BME280;10663;42.714;23.274;2022-08-21T06:54:10;94246.69;;;19.76;96.69
21011;BME280;10663;42.714;23.274;2022-08-21T06:55:42;94249.38;;;19.43;98.98
21011;BME280;10663;42.714;23.274;2022-08-21T06:57:13;94242.03;;;20.22;96.63
21011;BME280;10663;42.714;23.274;2022-08-21T06:58:44;94242.53;;;19.67;96.29
21011;BME280;10663;42.714;23.274;2022-08-21T07:00:14;94247.75;;;20.08;95.02
21011;BME280;10663;42.714;23.274;2022-08-21T07:01:46;94249.06;;;19.90;94.22
21011;BME280;10663;42.714;23.274;2022-08-21T07:03:38;94254.47;;;20.14;94.08
21011;BME280;10663;42.714;23.274;2022-08-21T07:05:09;94248.13;;;20.43;90.63
21011;BME280;10663;42.714;23.274;2022-08-21T07:06:40;94252.25;;;20.29;93.58
21011;BME280;10663;42.714;23.274;2022-08-21T07:08:11;94257.19;;;20.63;91.37
21011;BME280;10663;42.714;23.274;2022-08-21T07:09:42;94261.00;;;20.74;90.38
21011;BME280;10663;42.714;23.274;2022-08-21T07:11:17;94259.16;;;20.90;89.24
21011;BME280;10663;42.714;23.274;2022-08-21T07:12:49;94262.31;;;20.92;88.86
21011;BME280;10663;42.714;23.274;2022-08-21T07:14:20;94261.56;;;21.08;88.27
21011;BME280;10663;42.714;23.274;2022-08-21T07:15:51;94264.00;;;21.25;86.89
21011;BME280;10663;42.714;23.274;2022-08-21T07:17:22;94253.06;;;21.46;85.90
21011;BME280;10663;42.714;23.274;2022-08-21T07:18:53;94261.06;;;21.58;85.36
21011;BME280;10663;42.714;23.274;2022-08-21T07:20:24;94254.19;;;22.04;82.39
21011;BME280;10663;42.714;23.274;2022-08-21T07:21:58;94255.25;;;22.15;79.62
21011;BME280;10663;42.714;23.274;2022-08-21T07:23:32;94256.38;;;21.98;80.00
21011;BME280;10663;42.714;23.274;2022-08-21T07:25:05;94256.81;;;22.16;79.46
21011;BME280;10663;42.714;23.274;2022-08-21T07:26:36;94247.94;;;22.00;80.30
21011;BME280;10663;42.714;23.274;2022-08-21T07:28:07;94252.28;;;22.36;79.36
21011;BME280;10663;42.714;23.274;2022-08-21T07:29:37;94248.38;;;22.18;79.59
21011;BME280;10663;42.714;23.274;2022-08-21T07:31:10;94252.75;;;21.79;80.48
21011;BME280;10663;42.714;23.274;2022-08-21T07:32:44;94244.03;;;22.13;80.54
21011;BME280;10663;42.714;23.274;2022-08-21T07:34:15;94243.16;;;21.93;79.89
21011;BME280;10663;42.714;23.274;2022-08-21T07:35:45;94238.06;;;21.76;80.29
21011;BME280;10663;42.714;23.274;2022-08-21T07:37:16;94236.81;;;21.58;81.86
21011;BME280;10663;42.714;23.274;2022-08-21T07:38:47;94231.03;;;21.28;83.23
21011;BME280;10663;42.714;23.274;2022-08-21T07:40:18;94233.00;;;21.59;82.50
21011;BME280;10663;42.714;23.274;2022-08-21T07:41:49;94223.66;;;21.41;81.99
21011;BME280;10663;42.714;23.274;2022-08-21T07:43:20;94224.94;;;21.75;81.10
21011;BME280;10663;42.714;23.274;2022-08-21T07:44:52;94228.84;;;21.77;79.08
21011;BME280;10663;42.714;23.274;2022-08-21T07:46:23;94230.28;;;22.18;78.80
21011;BME280;10663;42.714;23.274;2022-08-21T07:47:55;94223.81;;;21.76;79.39
21011;BME280;10663;42.714;23.274;2022-08-21T07:49:25;94222.66;;;21.17;82.16
21011;BME280;10663;42.714;23.274;2022-08-21T07:50:57;94224.19;;;21.46;81.16
21011;BME280;10663;42.714;23.274;2022-08-21T07:52:28;94224.22;;;21.62;80.60
21011;BME280;10663;42.714;23.274;2022-08-21T07:54:00;94218.97;;;21.38;80.55
21011;BME280;10663;42.714;23.274;2022-08-21T07:55:31;94220.25;;;21.28;79.88